Time;durP1;ratioP1;P1;durP2;ratioP2;P2;SDS_P1;SDS_P2;PMS_P1;PMS_P2;Temp;Humidity;BMP_temperature;BMP_pressure;BME280_temperature;BME280_humidity;BME280_pressure;Samples;Min_cycle;Max_cycle;Signal;HPM_P1;HPM_P2
2024/03/08 00:02:15;;;;;;;18.15;9.98;;;;;;;5.90;84.33;93934.28;5006055;28;20425;-83
2024/03/08 00:04:40;;;;;;;19.92;9.27;;;;;;;5.93;84.24;93935.59;5006206;28;20081;-83
2024/03/08 00:07:07;;;;;;;16.88;9.55;;;;;;;5.95;84.34;93938.78;5005953;28;20022;-82
2024/03/08 00:09:32;;;;;;;15.48;8.90;;;;;;;5.93;84.39;93938.22;5006393;28;20053;-83
2024/03/08 00:11:58;;;;;;;18.42;9.80;;;;;;;5.88;85.15;93941.69;5004970;28;20022;-83
2024/03/08 00:14:24;;;;;;;15.93;8.73;;;;;;;5.78;85.37;93937.31;5004892;28;20337;-83
2024/03/08 00:16:49;;;;;;;18.83;9.05;;;;;;;5.81;84.85;93928.03;5003733;28;20030;-83
2024/03/08 00:19:15;;;;;;;16.20;8.80;;;;;;;5.86;84.97;93935.13;5005951;28;20125;-83
2024/03/08 00:21:41;;;;;;;15.50;8.57;;;;;;;5.93;84.60;93927.66;5005918;28;20101;-83
2024/03/08 00:24:07;;;;;;;15.32;7.75;;;;;;;5.93;84.84;93931.06;5005676;28;20030;-82
2024/03/08 00:26:33;;;;;;;15.40;6.93;;;;;;;5.87;84.69;93928.78;5006132;28;20033;-83
2024/03/08 00:28:58;;;;;;;12.10;7.25;;;;;;;5.90;84.62;93923.69;5005805;28;20185;-83
2024/03/08 00:31:24;;;;;;;11.13;6.18;;;;;;;5.87;84.56;93923.47;5004741;28;20030;-82
2024/03/08 00:33:50;;;;;;;11.35;6.22;;;;;;;5.83;84.62;93920.59;5004324;28;20030;-82
2024/03/08 00:36:16;;;;;;;13.80;6.72;;;;;;;5.88;84.73;93917.09;5020768;28;20033;-83
2024/03/08 00:38:42;;;;;;;11.65;6.35;;;;;;;5.88;84.60;93927.69;5005289;28;20026;-83
2024/03/08 00:41:08;;;;;;;10.25;5.30;;;;;;;5.88;84.37;93917.88;5020570;28;20033;-82
2024/03/08 00:43:34;;;;;;;8.90;5.68;;;;;;;5.91;84.24;93917.34;5005698;28;20026;-83
2024/03/08 00:46:01;;;;;;;8.90;5.07;;;;;;;5.92;84.51;93913.63;5005489;28;20026;-83
2024/03/08 00:48:26;;;;;;;10.43;5.40;;;;;;;5.96;84.03;93911.22;5003859;28;20078;-83
2024/03/08 00:50:53;;;;;;;11.48;5.68;;;;;;;5.95;nan;93907.03;5005355;28;20029;-83
2024/03/08 00:53:18;;;;;;;13.63;5.30;;;;;;;5.88;84.38;93909.16;5005400;28;20058;-83
2024/03/08 00:55:46;;;;;;;12.50;4.88;;;;;;;5.90;84.07;93902.53;5005362;28;20019;-84
2024/03/08 00:58:12;;;;;;;8.73;3.85;;;;;;;5.91;83.79;93898.81;5005415;28;20240;-83
2024/03/08 01:00:38;;;;;;;8.88;4.55;;;;;;;5.86;83.60;93900.72;5005043;28;20025;-83
2024/03/08 01:03:04;;;;;;;8.43;4.10;;;;;;;5.78;83.73;93896.84;5003866;28;20030;-82
2024/03/08 01:05:30;;;;;;;7.15;4.07;;;;;;;5.71;84.11;93889.25;5004864;28;20057;-82
2024/03/08 01:07:55;;;;;;;5.20;3.13;;;;;;;5.63;83.96;93895.94;5005105;28;20445;-82
2024/03/08 01:10:23;;;;;;;4.32;2.33;;;;;;;5.59;84.04;93888.84;5004914;28;20061;-82
2024/03/08 01:12:49;;;;;;;5.32;2.85;;;;;;;5.51;83.93;93894.75;5004604;28;20069;-82
2024/03/08 01:15:15;;;;;;;4.75;2.25;;;;;;;5.45;84.07;93894.00;5004953;28;20264;-83
2024/03/08 01:17:41;;;;;;;5.47;2.60;;;;;;;5.39;84.36;93893.28;5004680;28;20022;-82
2024/03/08 01:20:07;;;;;;;3.85;2.22;;;;;;;5.30;84.66;93889.66;5004861;28;20261;-82
2024/03/08 01:22:33;;;;;;;4.88;2.72;;;;;;;5.21;85.32;93891.31;5004930;28;20022;-82
2024/03/08 01:24:59;;;;;;;5.45;3.25;;;;;;;5.17;85.71;93893.75;5004498;28;20093;-82
2024/03/08 01:27:24;;;;;;;6.28;2.97;;;;;;;5.21;86.03;93880.75;5004132;28;20076;-83
2024/03/08 01:29:50;;;;;;;4.22;1.92;;;;;;;5.14;86.34;93882.94;5004513;28;20073;-82
2024/03/08 01:32:16;;;;;;;5.65;2.83;;;;;;;5.14;86.23;93890.88;5004413;28;20022;-82
2024/03/08 01:34:42;;;;;;;5.78;2.40;;;;;;;5.13;86.44;93886.63;5003317;28;20262;-82
2024/03/08 01:37:07;;;;;;;5.63;2.20;;;;;;;5.08;86.20;93871.63;5004340;28;20026;-81
2024/03/08 01:39:33;;;;;;;3.63;2.10;;;;;;;5.02;86.37;93889.38;5004347;28;20069;-82
2024/03/08 01:42:01;;;;;;;3.00;1.67;;;;;;;4.97;86.70;93888.66;5004149;28;20026;-84
2024/03/08 01:44:27;;;;;;;5.65;2.35;;;;;;;4.91;86.92;93877.31;5004251;28;20041;-82
2024/03/08 01:46:53;;;;;;;5.47;2.40;;;;;;;4.87;87.33;93876.31;5004072;28;20077;-82
2024/03/08 01:49:21;;;;;;;4.00;2.30;;;;;;;4.82;87.46;93885.06;5019150;28;20061;-83
2024/03/08 01:51:48;;;;;;;3.67;1.92;;;;;;;4.81;87.53;93877.41;5004019;28;20027;-82
2024/03/08 01:54:16;;;;;;;3.60;2.00;;;;;;;4.72;88.07;93879.06;5004084;28;20030;-83
2024/03/08 01:56:42;;;;;;;3.42;1.95;;;;;;;4.67;88.43;93884.38;5018986;28;20026;-82
2024/03/08 01:59:07;;;;;;;4.85;2.38;;;;;;;4.61;88.69;93886.25;5004168;28;20098;-82
2024/03/08 02:01:33;;;;;;;5.45;2.55;;;;;;;4.58;88.84;93887.59;5003990;28;20015;-82
2024/03/08 02:03:59;;;;;;;4.28;2.33;;;;;;;4.48;89.19;93874.47;5003935;28;20022;-84
2024/03/08 02:06:24;;;;;;;6.55;2.40;;;;;;;4.45;89.34;93880.28;5003972;28;20018;-82
2024/03/08 02:08:50;;;;;;;4.72;2.67;;;;;;;4.41;89.59;93872.13;5003845;28;20225;-82
2024/03/08 02:11:15;;;;;;;4.45;2.40;;;;;;;4.42;89.78;93875.56;5003857;28;20026;-82
2024/03/08 02:13:41;;;;;;;3.78;2.10;;;;;;;4.41;90.01;93868.69;5003672;28;20033;-83
2024/03/08 02:16:08;;;;;;;4.03;2.38;;;;;;;4.42;90.03;93870.28;5003837;28;20029;-82
2024/03/08 02:18:34;;;;;;;2.95;1.60;;;;;;;4.42;89.99;93876.34;5003732;28;20036;-82
2024/03/08 02:21:04;;;;;;;3.92;2.25;;;;;;;4.45;89.51;93872.38;5003461;28;20034;-82
2024/03/08 02:23:30;;;;;;;3.83;1.92;;;;;;;4.47;89.21;93887.94;5003530;28;20030;-82
2024/03/08 02:25:56;;;;;;;5.75;1.88;;;;;;;4.45;88.76;93885.56;5003435;28;20332;-83
2024/03/08 02:28:23;;;;;;;3.17;1.45;;;;;;;4.42;88.41;93878.22;5003353;28;20316;-83
2024/03/08 02:30:55;;;;;;;2.83;1.63;;;;;;;4.41;88.43;93887.19;5003473;28;20256;-82
2024/03/08 02:33:21;;;;;;;3.30;1.85;;;;;;;4.39;88.48;93882.16;5003382;28;20109;-83
2024/03/08 02:35:48;;;;;;;3.30;1.90;;;;;;;4.38;88.66;93888.50;5003453;28;20019;-82
2024/03/08 02:38:22;;;;;;;3.22;1.70;;;;;;;4.46;88.69;93887.16;5003335;28;20023;-82
2024/03/08 02:40:49;;;;;;;4.88;1.80;;;;;;;4.48;88.92;93892.94;5006342;28;20068;-82
2024/03/08 02:43:17;;;;;;;3.33;1.83;;;;;;;4.54;88.94;93888.41;5007411;28;20019;-82
2024/03/08 02:45:43;;;;;;;4.00;2.20;;;;;;;4.59;88.98;93886.53;5007481;28;20044;-82
2024/03/08 02:48:09;;;;;;;5.82;1.85;;;;;;;4.63;88.63;93890.19;5007298;28;20029;-82
2024/03/08 02:50:36;;;;;;;5.18;2.30;;;;;;;4.70;88.01;93892.53;5007462;28;20324;-83
2024/03/08 02:53:02;;;;;;;6.85;1.70;;;;;;;4.75;88.17;93889.06;5007361;28;20022;-83
2024/03/08 02:55:27;;;;;;;5.55;1.85;;;;;;;4.83;87.64;93891.13;5007295;28;20150;-82
2024/03/08 02:57:56;;;;;;;4.45;1.95;;;;;;;4.83;87.57;93896.41;5007123;28;20022;-83
2024/03/08 03:00:23;;;;;;;4.18;2.22;;;;;;;4.86;87.75;93897.69;5007150;28;20260;-83
2024/03/08 03:02:53;;;;;;;3.40;1.85;;;;;;;4.90;87.66;93901.38;5005999;28;20279;-83
2024/03/08 03:05:20;;;;;;;4.43;2.00;;;;;;;4.93;87.21;93898.97;5007050;28;20030;-82
2024/03/08 03:07:45;;;;;;;6.25;2.13;;;;;;;4.92;86.98;93899.25;5007068;28;20018;-83
2024/03/08 03:10:12;;;;;;;4.72;1.83;;;;;;;4.66;84.38;93898.63;5006902;28;20041;-82
2024/03/08 03:12:38;;;;;;;2.78;1.80;;;;;;;4.69;84.62;93904.16;5006953;28;20204;-83
2024/03/08 03:15:04;;;;;;;3.58;1.77;;;;;;;4.70;84.80;93902.28;5006795;28;20029;-83
2024/03/08 03:17:30;;;;;;;3.05;1.73;;;;;;;4.78;85.10;93899.06;5007181;28;20037;-83
2024/03/08 03:19:55;;;;;;;1.80;1.00;;;;;;;4.84;84.62;93903.25;5006891;28;20042;-82
2024/03/08 03:22:21;;;;;;;2.15;1.13;;;;;;;4.86;83.55;93908.25;5006782;28;20077;-83
2024/03/08 03:24:46;;;;;;;1.83;1.00;;;;;;;4.96;82.62;93898.41;5006369;28;20027;-83
2024/03/08 03:27:15;;;;;;;2.17;1.10;;;;;;;5.06;82.02;93899.41;5006737;28;20264;-83
2024/03/08 03:29:45;;;;;;;2.00;1.15;;;;;;;5.15;82.30;93905.66;5006657;28;20026;-83
2024/03/08 03:32:13;;;;;;;3.15;1.00;;;;;;;5.18;82.14;93918.31;5006678;28;20026;-82
2024/03/08 03:34:40;;;;;;;2.15;1.20;;;;;;;5.26;81.64;93915.06;5022049;28;20023;-82
2024/03/08 03:37:06;;;;;;;3.40;1.52;;;;;;;5.28;81.41;93918.22;5006494;28;20030;-83
2024/03/08 03:39:32;;;;;;;3.25;1.27;;;;;;;5.31;80.63;93922.16;5006497;28;20057;-82
2024/03/08 03:42:02;;;;;;;2.00;0.95;;;;;;;5.36;79.92;93916.84;5006437;28;20033;-83
2024/03/08 03:44:28;;;;;;;3.10;1.50;;;;;;;5.35;78.64;93918.72;5005243;28;20038;-82
2024/03/08 03:46:53;;;;;;;2.78;1.20;;;;;;;5.31;78.46;93917.69;5006391;28;20194;-83
2024/03/08 03:49:19;;;;;;;3.17;1.20;;;;;;;5.34;78.10;93922.41;5006150;28;20042;-83
2024/03/08 03:51:45;;;;;;;3.65;1.73;;;;;;;5.36;76.96;93925.56;5006118;28;20089;-82
2024/03/08 03:54:12;;;;;;;3.45;1.25;;;;;;;5.31;77.38;93922.97;5006311;28;20050;-83
2024/03/08 03:56:38;;;;;;;3.72;1.63;;;;;;;5.26;77.37;93923.00;5006156;28;20074;-82
2024/03/08 03:59:03;;;;;;;2.72;1.60;;;;;;;5.16;77.13;93926.50;5006110;28;20034;-82
2024/03/08 04:01:29;;;;;;;5.47;1.42;;;;;;;5.04;77.49;93926.09;5005982;28;20097;-82
2024/03/08 04:03:54;;;;;;;2.60;1.27;;;;;;;4.94;77.65;93929.59;5005993;28;20033;-82
2024/03/08 04:06:20;;;;;;;1.90;0.77;;;;;;;4.80;76.80;93928.63;5005807;28;20027;-82
2024/03/08 04:08:46;;;;;;;2.85;1.10;;;;;;;4.75;76.96;93937.38;5005990;28;20026;-82
2024/03/08 04:11:11;;;;;;;1.60;0.88;;;;;;;4.68;77.65;93941.38;5006299;28;20094;-81
2024/03/08 04:13:37;;;;;;;2.45;1.00;;;;;;;4.58;78.21;93942.22;5005834;28;20371;-82
2024/03/08 04:16:07;;;;;;;2.13;1.20;;;;;;;4.50;78.86;93943.63;5004836;28;20057;-82
2024/03/08 04:18:35;;;;;;;2.95;0.88;;;;;;;4.46;79.81;93949.69;5005762;28;20232;-82
2024/03/08 04:21:01;;;;;;;2.28;1.10;;;;;;;4.40;80.32;93949.72;5005833;28;20026;-82
2024/03/08 04:23:28;;;;;;;1.58;0.80;;;;;;;4.34;80.15;93950.81;5005747;28;20081;-82
2024/03/08 04:25:54;;;;;;;4.03;1.55;;;;;;;4.28;80.63;93953.75;5005769;28;20150;-82
2024/03/08 04:28:19;;;;;;;2.47;1.20;;;;;;;4.32;81.08;93949.50;5005617;28;20026;-82
2024/03/08 04:30:46;;;;;;;2.70;1.30;;;;;;;4.36;81.42;93961.09;5004515;28;20061;-82
2024/03/08 04:33:11;;;;;;;2.25;1.20;;;;;;;4.39;80.50;93956.06;5005597;28;20026;-83
2024/03/08 04:35:36;;;;;;;2.75;1.20;;;;;;;4.39;80.45;93957.91;5004070;28;20220;-82
2024/03/08 04:38:05;;;;;;;1.80;1.00;;;;;;;4.40;80.61;93964.78;5005537;28;20034;-83
2024/03/08 04:40:31;;;;;;;3.40;1.20;;;;;;;4.39;80.12;93968.47;5005226;28;20093;-82
2024/03/08 04:42:58;;;;;;;3.03;1.17;;;;;;;4.43;79.56;93967.66;5004138;28;20030;-82
2024/03/08 04:45:25;;;;;;;2.47;1.23;;;;;;;4.48;79.33;93964.22;5005309;28;20027;-82
2024/03/08 04:47:52;;;;;;;4.07;1.52;;;;;;;4.51;78.70;93970.78;5020271;28;20038;-82
2024/03/08 04:50:18;;;;;;;2.75;1.48;;;;;;;4.45;78.99;93969.25;5005184;28;20160;-82
2024/03/08 04:52:43;;;;;;;3.03;1.60;;;;;;;4.46;79.26;93966.34;5004113;28;20109;-82
2024/03/08 04:55:09;;;;;;;2.75;1.35;;;;;;;4.35;78.56;93962.94;5005381;28;20026;-83
2024/03/08 04:57:34;;;;;;;5.70;1.33;;;;;;;4.35;79.10;93970.06;5004022;28;20049;-83
2024/03/08 05:00:00;;;;;;;1.92;1.33;;;;;;;4.38;79.61;93974.81;5005224;28;20034;-82
2024/03/08 05:02:25;;;;;;;3.50;1.70;;;;;;;4.40;79.73;93976.13;5019765;28;20030;-83
2024/03/08 05:04:51;;;;;;;6.75;1.77;;;;;;;4.40;79.45;93976.13;5004799;28;20026;-83
2024/03/08 05:07:16;;;;;;;2.78;1.17;;;;;;;4.46;79.53;93978.72;5005014;28;20026;-83
2024/03/08 05:09:42;;;;;;;3.40;1.85;;;;;;;4.53;79.42;93974.72;5005399;28;20022;-83
2024/03/08 05:12:07;;;;;;;5.53;1.75;;;;;;;4.53;78.76;93972.09;5004956;28;20089;-82
2024/03/08 05:14:34;;;;;;;3.05;1.90;;;;;;;4.52;78.82;93986.38;5004879;28;20085;-82
2024/03/08 05:17:00;;;;;;;3.42;1.83;;;;;;;4.50;79.15;93988.50;5004743;28;20093;-82
2024/03/08 05:19:26;;;;;;;2.65;1.35;;;;;;;4.53;79.62;93995.06;5003614;28;20071;-83
2024/03/08 05:21:52;;;;;;;3.00;1.70;;;;;;;4.49;79.92;93989.53;5004654;28;20029;-83
2024/03/08 05:24:17;;;;;;;2.50;1.70;;;;;;;4.49;80.16;93997.44;5003358;28;20226;-83
2024/03/08 05:26:43;;;;;;;6.95;1.40;;;;;;;4.54;80.01;94001.91;5005009;28;20033;-82
2024/03/08 05:29:09;;;;;;;3.85;2.20;;;;;;;4.42;80.26;94007.53;5004815;28;20129;-83
2024/03/08 05:31:54;;;;;;;3.13;1.90;;;;;;;4.42;80.27;94007.53;5005363;28;20026;-81
2024/03/08 05:34:21;;;;;;;4.95;1.98;;;;;;;4.31;80.79;94005.97;5004937;28;20022;-81
2024/03/08 05:36:49;;;;;;;5.13;2.40;;;;;;;4.36;80.85;94013.88;5004892;28;20018;-82
2024/03/08 05:39:15;;;;;;;3.72;2.28;;;;;;;4.41;81.49;94019.13;5005233;28;20068;-83
2024/03/08 05:41:42;;;;;;;6.35;2.72;;;;;;;4.39;81.30;94015.97;5005077;28;20022;-82
2024/03/08 05:44:08;;;;;;;5.15;2.00;;;;;;;4.38;81.38;94023.09;5004747;28;20049;-82
2024/03/08 05:46:34;;;;;;;6.57;2.42;;;;;;;4.39;81.42;94027.31;5004896;28;20027;-83
2024/03/08 05:49:00;;;;;;;4.57;2.30;;;;;;;4.50;81.68;94022.00;5003666;28;20050;-83
2024/03/08 05:51:28;;;;;;;7.70;2.63;;;;;;;4.56;81.16;94034.09;5004705;28;20049;-82
2024/03/08 05:53:56;;;;;;;5.93;2.20;;;;;;;4.59;81.22;94028.31;5004531;28;20026;-82
2024/03/08 05:56:23;;;;;;;6.45;2.75;;;;;;;4.58;81.32;94032.00;5004636;28;20073;-82
2024/03/08 05:58:49;;;;;;;4.55;2.40;;;;;;;4.53;81.47;94039.94;5003468;28;20045;-83
2024/03/08 06:01:15;;;;;;;5.53;2.60;;;;;;;4.57;81.45;94040.97;5004452;28;20026;-82
2024/03/08 06:03:44;;;;;;;5.40;2.97;;;;;;;4.55;81.46;94043.88;5004481;28;20037;-82
2024/03/08 06:06:13;;;;;;;5.78;2.95;;;;;;;4.60;81.17;94051.78;5002855;28;20252;-83
2024/03/08 06:08:39;;;;;;;8.57;2.90;;;;;;;4.62;80.77;94054.97;5003567;28;20025;-83
2024/03/08 06:11:05;;;;;;;6.40;3.20;;;;;;;4.67;81.25;94043.56;5003690;28;20014;-82
2024/03/08 06:13:32;;;;;;;6.05;3.30;;;;;;;4.74;81.65;94053.84;5002055;28;20061;-83
2024/03/08 06:15:57;;;;;;;7.43;4.35;;;;;;;4.67;81.56;94051.50;5003558;28;20038;-83
2024/03/08 06:18:23;;;;;;;9.50;3.53;;;;;;;4.84;81.84;94056.44;5002664;28;20022;-83
2024/03/08 06:20:48;;;;;;;5.57;3.28;;;;;;;4.99;81.49;94066.16;5003692;28;20221;-83
2024/03/08 06:23:17;;;;;;;7.15;3.03;;;;;;;5.12;81.29;94062.09;5003594;28;20069;-83
2024/03/08 06:25:46;;;;;;;9.95;4.03;;;;;;;5.21;80.77;94060.44;5003887;28;20045;-82
2024/03/08 06:28:12;;;;;;;5.10;3.30;;;;;;;5.31;80.25;94063.06;5003655;28;20049;-83
2024/03/08 06:30:37;;;;;;;7.85;3.65;;;;;;;5.41;79.77;94060.34;5003673;28;20026;-83
2024/03/08 06:33:03;;;;;;;7.25;3.47;;;;;;;5.48;79.37;94054.72;5003476;28;20033;-83
2024/03/08 06:35:28;;;;;;;9.60;3.80;;;;;;;5.42;78.98;94067.19;5002683;28;20125;-83
2024/03/08 06:37:53;;;;;;;8.43;3.85;;;;;;;5.49;78.50;94060.81;5003492;28;20072;-84
2024/03/08 06:40:19;;;;;;;14.13;4.47;;;;;;;5.56;78.37;94069.22;5003596;28;20022;-83
2024/03/08 06:42:45;;;;;;;12.68;5.28;;;;;;;5.60;78.07;94068.38;5002769;28;20022;-84
2024/03/08 06:45:12;;;;;;;14.60;5.05;;;;;;;5.57;78.38;94068.16;5003601;28;20022;-83
2024/03/08 06:47:37;;;;;;;8.02;4.38;;;;;;;5.67;77.84;94072.56;5002530;28;20291;-83
2024/03/08 06:50:03;;;;;;;9.80;5.38;;;;;;;5.66;77.71;94074.44;5003391;28;20069;-83
2024/03/08 06:52:29;;;;;;;13.27;5.15;;;;;;;5.70;77.61;94080.75;5003390;28;20030;-83
2024/03/08 06:54:54;;;;;;;10.88;5.30;;;;;;;5.70;77.46;94070.16;5003410;28;20018;-83
2024/03/08 06:57:21;;;;;;;10.85;5.00;;;;;;;5.71;77.47;94074.38;5003400;28;20041;-83
2024/03/08 06:59:48;;;;;;;11.05;5.22;;;;;;;5.72;77.62;94075.97;5003272;28;20053;-83
2024/03/08 07:02:13;;;;;;;9.27;4.88;;;;;;;5.79;77.32;94080.94;5003344;28;20220;-84
2024/03/08 07:04:39;;;;;;;9.15;4.78;;;;;;;5.82;77.42;94083.81;5003326;28;20026;-83
2024/03/08 07:07:05;;;;;;;12.45;5.80;;;;;;;5.83;77.29;94082.75;5003308;28;20022;-83
2024/03/08 07:09:30;;;;;;;10.73;5.63;;;;;;;5.87;77.34;94084.84;5003298;28;20220;-82
2024/03/08 07:11:56;;;;;;;11.65;5.63;;;;;;;5.83;77.20;94089.91;5003162;28;20029;-82
2024/03/08 07:14:22;;;;;;;10.40;5.45;;;;;;;5.87;76.74;94082.19;5003307;28;20068;-82
2024/03/08 07:16:48;;;;;;;7.75;4.68;;;;;;;5.83;76.56;94093.31;5003490;28;20093;-82
2024/03/08 07:19:13;;;;;;;11.77;5.40;;;;;;;5.93;76.21;94083.75;5003220;28;20332;-83
2024/03/08 07:21:39;;;;;;;10.27;4.68;;;;;;;6.00;75.67;94085.03;5003149;28;20041;-83
2024/03/08 07:26:43;;;;;;;9.68;4.85;;;;;;;6.11;75.55;94093.66;5005836;28;20022;-82
2024/03/08 07:29:08;;;;;;;13.07;5.32;;;;;;;6.13;75.19;94094.16;5006837;28;20097;-82
2024/03/08 07:34:03;;;;;;;11.32;4.18;;;;;;;6.28;74.08;94092.44;5006835;28;20053;-82
2024/03/08 07:36:28;;;;;;;7.93;4.18;;;;;;;6.34;73.43;94089.47;5006670;28;20202;-82
2024/03/08 07:38:54;;;;;;;9.38;4.82;;;;;;;6.37;73.38;94088.09;5006434;28;20033;-83
2024/03/08 07:41:20;;;;;;;13.13;5.07;;;;;;;6.37;72.75;94096.03;5006552;28;20033;-83
2024/03/08 07:43:45;;;;;;;15.30;5.25;;;;;;;6.32;72.12;94101.41;5006663;28;20041;-82
2024/03/08 07:46:11;;;;;;;9.13;4.28;;;;;;;6.36;70.73;94102.41;5006417;28;20042;-82
2024/03/08 07:48:39;;;;;;;13.95;3.97;;;;;;;6.41;70.24;94097.06;5004929;28;20050;-83
2024/03/08 07:51:05;;;;;;;14.18;3.55;;;;;;;6.37;70.17;94090.75;5006493;28;20141;-83
2024/03/08 07:53:31;;;;;;;16.30;4.63;;;;;;;6.34;70.08;94101.91;5006225;28;20026;-82
2024/03/08 07:55:56;;;;;;;13.48;4.35;;;;;;;6.17;70.08;94100.47;5006290;28;20029;-83
2024/03/08 07:58:21;;;;;;;8.48;4.35;;;;;;;6.25;70.54;94104.38;5006085;28;20256;-82
2024/03/08 08:00:47;;;;;;;10.15;4.32;;;;;;;6.39;70.57;94104.50;5006679;28;20026;-82
2024/03/08 08:03:12;;;;;;;5.25;3.35;;;;;;;6.41;69.95;94094.41;5006074;28;20053;-83
2024/03/08 08:05:38;;;;;;;9.05;4.40;;;;;;;6.51;69.96;94099.59;5004912;28;20081;-82
2024/03/08 08:08:06;;;;;;;14.60;4.90;;;;;;;6.54;69.24;94103.56;5006015;28;20026;-83
2024/03/08 08:10:32;;;;;;;22.35;5.30;;;;;;;6.56;69.13;94104.84;5005919;28;20034;-83
2024/03/08 08:12:58;;;;;;;24.60;4.88;;;;;;;6.57;69.44;94103.81;5006041;28;20026;-82
2024/03/08 08:15:24;;;;;;;9.27;5.00;;;;;;;6.67;70.04;94104.75;5005970;28;20094;-83
2024/03/08 08:17:49;;;;;;;7.22;4.55;;;;;;;6.54;69.18;94101.69;5006151;28;20030;-83
2024/03/08 08:20:15;;;;;;;9.70;4.20;;;;;;;6.67;68.09;94094.16;5004660;28;20030;-83
2024/03/08 08:22:41;;;;;;;19.35;4.43;;;;;;;6.80;68.89;94096.13;5006499;28;20265;-83
2024/03/08 08:25:07;;;;;;;8.77;4.30;;;;;;;6.98;69.70;94098.03;5006375;28;20030;-84
2024/03/08 08:27:33;;;;;;;11.95;4.05;;;;;;;7.12;67.92;94099.97;5006605;28;20026;-83
2024/03/08 08:29:58;;;;;;;8.00;4.80;;;;;;;7.21;67.06;94101.69;5006560;28;20396;-83
2024/03/08 08:32:24;;;;;;;7.75;4.32;;;;;;;7.36;66.83;94094.63;5006533;28;20253;-83
2024/03/08 08:34:49;;;;;;;18.75;5.07;;;;;;;7.38;65.79;94101.19;5005226;28;20022;-82
2024/03/08 08:37:16;;;;;;;8.63;5.25;;;;;;;7.36;66.45;94105.22;5005217;28;20027;-82
2024/03/08 08:39:41;;;;;;;11.75;6.40;;;;;;;7.34;66.83;94097.53;5006265;28;20041;-82
2024/03/08 08:42:09;;;;;;;10.30;5.22;;;;;;;7.48;66.68;94102.16;5005974;28;20049;-83
2024/03/08 08:44:35;;;;;;;8.70;4.72;;;;;;;7.44;65.30;94094.75;5006129;28;20022;-83
2024/03/08 08:47:00;;;;;;;11.25;4.93;;;;;;;7.42;65.23;94091.59;5005028;28;20220;-84
2024/03/08 08:49:26;;;;;;;8.75;4.55;;;;;;;7.44;65.12;94089.44;5004844;28;20121;-83
2024/03/08 08:51:52;;;;;;;10.40;5.13;;;;;;;7.50;64.64;94092.81;5005988;28;20049;-83
2024/03/08 08:54:18;;;;;;;15.00;5.22;;;;;;;7.59;65.10;94099.06;5006286;28;20045;-83
2024/03/08 08:56:44;;;;;;;18.25;5.53;;;;;;;7.52;65.35;94087.22;5021292;28;20026;-83
2024/03/08 08:59:13;;;;;;;10.07;4.85;;;;;;;7.54;65.46;94088.50;5004688;28;20026;-83
2024/03/08 09:01:39;;;;;;;13.13;5.38;;;;;;;7.31;65.24;94092.81;5005628;28;20067;-83
2024/03/08 09:04:05;;;;;;;8.82;5.18;;;;;;;7.37;65.52;94091.69;5005709;28;20106;-82
2024/03/08 09:06:31;;;;;;;16.02;5.55;;;;;;;7.49;65.75;94088.59;5005404;28;20030;-82
2024/03/08 09:08:56;;;;;;;9.57;5.15;;;;;;;7.72;66.04;94092.22;5004516;28;20026;-84
2024/03/08 09:11:25;;;;;;;17.05;5.45;;;;;;;7.86;64.44;94089.63;5005567;28;20026;-83
2024/03/08 09:13:50;;;;;;;11.15;5.25;;;;;;;7.85;63.49;94088.03;5005521;28;20033;-83
2024/03/08 09:16:16;;;;;;;8.48;4.60;;;;;;;7.84;64.35;94089.91;5004272;28;20026;-83
2024/03/08 09:18:41;;;;;;;8.70;4.20;;;;;;;7.82;63.30;94093.94;5004291;28;20101;-83
2024/03/08 09:21:09;;;;;;;10.52;5.00;;;;;;;7.73;63.42;94093.00;5005097;28;20060;-84
2024/03/08 09:23:35;;;;;;;10.65;4.35;;;;;;;7.60;63.90;94095.31;5005034;28;20030;-83
2024/03/08 09:26:02;;;;;;;8.90;4.72;;;;;;;7.59;64.42;94098.25;5005265;28;20026;-83
2024/03/08 09:28:28;;;;;;;16.70;4.03;;;;;;;7.60;61.99;94094.53;5005384;28;20064;-83
2024/03/08 09:30:54;;;;;;;9.75;3.88;;;;;;;7.67;63.31;94078.25;5005256;28;20058;-84
2024/03/08 09:33:20;;;;;;;11.63;4.03;;;;;;;7.75;62.71;94093.50;5005082;28;20077;-83
2024/03/08 09:35:51;;;;;;;8.05;4.25;;;;;;;7.95;61.88;94089.75;5005233;28;20022;-83
2024/03/08 09:38:16;;;;;;;22.50;3.90;;;;;;;8.06;59.65;94085.06;5005945;28;20022;-83
2024/03/08 09:40:42;;;;;;;7.95;4.22;;;;;;;7.93;58.88;94091.91;5006156;28;20263;-84
2024/03/08 09:43:08;;;;;;;11.48;3.10;;;;;;;7.95;59.96;94084.44;5004806;28;20065;-82
2024/03/08 09:45:39;;;;;;;9.02;3.70;;;;;;;8.15;60.18;94083.31;5004892;28;20026;-83
2024/03/08 09:48:05;;;;;;;9.15;3.53;;;;;;;8.46;61.18;94088.91;5004165;28;20027;-83
2024/03/08 09:50:30;;;;;;;7.95;3.15;;;;;;;8.67;58.14;94088.53;5003507;28;20030;-85
2024/03/08 09:52:57;;;;;;;9.27;2.40;;;;;;;8.71;55.63;94085.00;5005011;28;20030;-84
2024/03/08 09:55:25;;;;;;;6.90;2.72;;;;;;;8.60;54.85;94084.38;5004928;28;20269;-84
2024/03/08 10:00:38;;;;;;;5.28;2.78;;;;;;;8.61;54.50;94091.28;5004567;28;20060;-83
2024/03/08 10:03:05;;;;;;;6.45;2.58;;;;;;;8.64;54.66;94080.06;5004763;28;20022;-83
2024/03/08 10:05:33;;;;;;;7.53;2.95;;;;;;;8.56;54.73;94086.06;5003069;28;20248;-84
2024/03/08 10:07:58;;;;;;;7.43;3.05;;;;;;;8.51;55.24;94080.06;5004579;28;20155;-83
2024/03/08 10:10:24;;;;;;;8.55;3.90;;;;;;;8.62;56.12;94079.56;5003510;28;20032;-84
2024/03/08 10:12:49;;;;;;;5.65;2.83;;;;;;;8.49;55.73;94080.38;5004389;28;20224;-85
2024/03/08 10:15:20;;;;;;;5.38;3.22;;;;;;;8.31;55.61;94084.63;5004564;28;20015;-83
2024/03/08 10:17:45;;;;;;;9.68;3.85;;;;;;;8.25;56.62;94088.47;5004455;28;20038;-84
2024/03/08 10:20:15;;;;;;;11.35;3.35;;;;;;;8.23;56.96;94088.75;5004497;28;20060;-83
2024/03/08 10:22:44;;;;;;;8.45;3.42;;;;;;;8.30;57.68;94088.34;5004266;28;20077;-85
2024/03/08 10:25:13;;;;;;;13.40;3.00;;;;;;;8.40;58.40;94076.78;5004137;28;20026;-83
2024/03/08 10:27:42;;;;;;;11.70;3.35;;;;;;;8.50;58.32;94087.25;5003029;28;20024;-84
2024/03/08 10:30:19;;;;;;;13.40;2.67;;;;;;;8.53;57.30;94084.00;5004556;28;20037;-83
2024/03/08 10:32:45;;;;;;;3.83;1.85;;;;;;;8.57;56.95;94085.00;5004466;28;20026;-84
2024/03/08 10:35:12;;;;;;;9.18;2.20;;;;;;;8.66;58.03;94079.00;5004345;28;20081;-83
2024/03/08 10:38:02;;;;;;;4.10;2.05;;;;;;;8.84;56.46;94078.09;5003894;28;20022;-83
2024/03/08 10:40:29;;;;;;;5.97;3.08;;;;;;;9.01;54.78;94067.63;5004263;28;20225;-84
2024/03/08 10:42:58;;;;;;;5.30;2.13;;;;;;;9.05;54.86;94065.19;5004436;28;20077;-84
2024/03/08 10:45:30;;;;;;;3.90;2.30;;;;;;;9.08;53.82;94064.59;5004710;28;20030;-82
2024/03/08 10:48:09;;;;;;;4.38;2.50;;;;;;;9.01;54.06;94066.84;5004150;28;20085;-83
2024/03/08 10:50:36;;;;;;;10.20;3.10;;;;;;;8.99;55.50;94063.72;5019391;28;20022;-82
2024/03/08 10:53:03;;;;;;;7.93;2.70;;;;;;;9.05;55.45;94062.53;5004247;28;20089;-82
2024/03/08 10:55:28;;;;;;;10.98;2.20;;;;;;;9.12;55.23;94062.09;5004130;28;20049;-82
2024/03/08 10:57:54;;;;;;;6.95;3.28;;;;;;;9.14;56.40;94059.94;5004569;28;20022;-83
2024/03/08 11:00:26;;;;;;;4.22;2.22;;;;;;;9.35;55.94;94060.31;5004679;28;20073;-83
2024/03/08 11:02:53;;;;;;;;;;;;;;;9.38;55.09;94054.38;5008095;28;20029;-83
2024/03/08 11:05:48;;;;;;;4.25;2.00;;;;;;;9.44;53.74;94051.31;5007788;28;20228;-82
2024/03/08 11:08:20;;;;;;;6.30;1.73;;;;;;;9.48;52.30;94053.34;5007086;28;20038;-82
2024/03/08 11:10:56;;;;;;;6.60;2.15;;;;;;;9.53;53.45;94050.59;5007833;28;20252;-83
2024/03/08 11:13:43;;;;;;;9.73;1.70;;;;;;;9.55;52.70;94041.22;5006969;28;20057;-83
2024/03/08 11:16:09;;;;;;;3.30;1.80;;;;;;;9.71;52.88;94030.19;5007823;28;20033;-84
2024/03/08 11:18:35;;;;;;;6.50;2.42;;;;;;;9.78;52.51;94033.22;5022576;28;20026;-83
2024/03/08 11:21:06;;;;;;;4.40;1.90;;;;;;;9.84;51.05;94024.81;5008028;28;20026;-82
2024/03/08 11:23:33;;;;;;;5.80;2.25;;;;;;;9.98;50.15;94024.75;5007915;28;20018;-84
2024/03/08 11:25:59;;;;;;;3.50;2.10;;;;;;;10.06;50.37;94031.22;5007694;28;20042;-83
2024/03/08 11:28:26;;;;;;;3.55;1.60;;;;;;;10.20;50.87;94023.16;5022849;28;20026;-84
2024/03/08 11:30:58;;;;;;;3.97;2.00;;;;;;;10.09;49.76;94019.16;5007879;28;20018;-83
2024/03/08 11:33:26;;;;;;;4.50;2.08;;;;;;;10.12;49.01;94016.69;5007729;28;20032;-84
2024/03/08 11:35:52;;;;;;;5.75;1.90;;;;;;;10.38;52.50;94011.50;5006407;28;20225;-83
2024/03/08 11:38:19;;;;;;;4.95;1.98;;;;;;;10.54;50.36;94016.41;5006648;28;20022;-84
2024/03/08 11:40:49;;;;;;;4.85;2.10;;;;;;;10.60;49.80;94015.97;5007020;28;20018;-85
2024/03/08 11:43:16;;;;;;;3.95;2.40;;;;;;;10.55;50.10;94016.09;5007029;28;20026;-85
2024/03/08 11:45:44;;;;;;;5.07;2.20;;;;;;;10.54;48.45;94013.75;5005480;28;20097;-85